Time;durP1;ratioP1;P1;durP2;ratioP2;P2;SDS_P1;SDS_P2;PMS_P1;PMS_P2;Temp;Humidity;BMP_temperature;BMP_pressure;BME280_temperature;BME280_humidity;BME280_pressure;Samples;Min_cycle;Max_cycle;Signal;HPM_P1;HPM_P2
2021/12/21 00:04:27;;;;;;;26.73;14.13;;;;;;;0.41;100.00;102730.94;10543243;28;20131;-66
2021/12/21 00:09:49;;;;;;;21.23;12.00;;;;;;;0.43;100.00;102729.25;10557470;28;20486;-66
2021/12/21 00:15:21;;;;;;;22.70;12.15;;;;;;;0.34;100.00;102724.03;10563492;28;20044;-66
2021/12/21 00:20:54;;;;;;;24.42;12.52;;;;;;;0.17;100.00;102723.91;10563150;28;20048;-66
2021/12/21 00:26:19;;;;;;;24.20;11.73;;;;;;;0.09;100.00;102711.88;10546245;28;20059;-66
2021/12/21 00:31:41;;;;;;;24.27;12.02;;;;;;;0.10;100.00;102718.72;10528748;28;20040;-66
2021/12/21 00:37:04;;;;;;;46.60;10.98;;;;;;;0.07;100.00;102713.56;10523574;28;20059;-66
2021/12/21 00:42:25;;;;;;;92.70;12.68;;;;;;;0.06;100.00;102707.59;10524243;28;20507;-66
2021/12/21 00:47:49;;;;;;;31.10;11.95;;;;;;;-0.02;100.00;102708.38;10549130;28;20047;-66
2021/12/21 00:53:12;;;;;;;21.02;11.00;;;;;;;-0.02;100.00;102705.81;10551395;28;20048;-66
2021/12/21 00:58:33;;;;;;;20.52;11.25;;;;;;;-0.04;100.00;102699.81;10571733;28;20058;-66
2021/12/21 01:03:57;;;;;;;22.17;12.35;;;;;;;-0.01;100.00;102702.41;10548417;28;20040;-66
2021/12/21 01:10:02;;;;;;;21.25;11.85;;;;;;;0.03;100.00;102705.00;10522591;28;20044;-66
2021/12/21 01:20:54;;;;;;;18.55;11.25;;;;;;;-0.04;100.00;102696.38;10544290;28;20055;-66
2021/12/21 01:26:28;;;;;;;23.80;11.38;;;;;;;0.01;100.00;102693.00;10514877;28;1194924;-66
2021/12/21 01:32:15;;;;;;;20.13;11.20;;;;;;;-0.12;100.00;102696.31;10566954;28;20039;-65
2021/12/21 01:38:25;;;;;;;21.65;11.60;;;;;;;-0.04;100.00;102693.81;10566547;28;20055;-66
2021/12/21 01:54:29;;;;;;;18.58;10.63;;;;;;;-0.10;100.00;102689.50;10524035;28;20055;-66
2021/12/21 01:59:51;;;;;;;22.65;11.07;;;;;;;-0.18;100.00;102686.03;10534101;28;20059;-66
2021/12/21 02:05:13;;;;;;;20.52;11.48;;;;;;;-0.20;100.00;102676.59;10559630;27;20040;-66
2021/12/21 02:10:35;;;;;;;20.27;11.23;;;;;;;-0.27;100.00;102670.56;10561511;27;20130;-66
2021/12/21 02:15:59;;;;;;;18.88;10.55;;;;;;;-0.30;100.00;102674.81;10578879;27;20043;-66
2021/12/21 02:26:50;;;;;;;20.48;10.93;;;;;;;-0.13;100.00;102658.72;10562310;28;20700;-65
2021/12/21 02:32:12;;;;;;;24.80;11.68;;;;;;;-0.29;100.00;102662.00;10564252;28;20048;-66
2021/12/21 02:37:34;;;;;;;20.77;10.45;;;;;;;-0.94;100.00;102670.75;10560361;28;20058;-65
2021/12/21 02:42:56;;;;;;;19.90;9.70;;;;;;;-0.92;100.00;102658.81;10562838;28;20062;-66
2021/12/21 02:48:18;;;;;;;14.48;8.65;;;;;;;-1.02;100.00;102660.41;10551514;28;20047;-66
2021/12/21 02:53:41;;;;;;;16.05;9.10;;;;;;;-1.31;100.00;102661.75;10542874;28;20058;-66
2021/12/21 02:59:03;;;;;;;14.70;8.45;;;;;;;-1.01;100.00;102654.41;10521531;28;20072;-66
2021/12/21 03:04:28;;;;;;;17.65;8.68;;;;;;;-1.20;100.00;102648.25;10569375;28;20069;-66
2021/12/21 03:09:58;;;;;;;21.05;9.60;;;;;;;-1.11;100.00;102650.06;10556967;28;20052;-66
2021/12/21 03:15:25;;;;;;;16.52;9.27;;;;;;;-1.07;100.00;102649.25;10562500;28;20046;-65
2021/12/21 03:20:47;;;;;;;19.60;8.90;;;;;;;-0.89;100.00;102650.31;10550173;28;20055;-65
2021/12/21 03:26:09;;;;;;;17.23;9.48;;;;;;;-0.98;100.00;102648.50;10561349;28;20061;-65
2021/12/21 03:31:32;;;;;;;17.35;9.07;;;;;;;-1.20;100.00;102652.50;10521122;28;20056;-65
2021/12/21 03:36:54;;;;;;;12.73;7.45;;;;;;;-1.52;100.00;102644.41;10576378;28;20128;-66
2021/12/21 03:42:16;;;;;;;16.48;9.20;;;;;;;-1.24;100.00;102641.41;10548811;28;20051;-66
2021/12/21 03:47:38;;;;;;;13.85;8.73;;;;;;;-1.41;100.00;102636.88;10519647;28;20044;-66
2021/12/21 03:52:59;;;;;;;14.60;8.90;;;;;;;-1.07;100.00;102634.75;10524064;28;20047;-66
2021/12/21 03:58:21;;;;;;;16.50;9.23;;;;;;;-1.01;100.00;102633.94;10567292;28;20054;-66
2021/12/21 04:03:42;;;;;;;13.68;8.68;;;;;;;-1.44;100.00;102636.84;10594816;28;20047;-66
2021/12/21 04:09:07;;;;;;;14.57;8.38;;;;;;;-1.26;100.00;102640.50;10558244;27;20199;-66
2021/12/21 04:14:30;;;;;;;15.38;8.75;;;;;;;-1.30;100.00;102642.97;10559782;28;20051;-66
2021/12/21 04:19:52;;;;;;;17.65;9.20;;;;;;;-1.22;100.00;102643.97;10532871;28;20059;-66
2021/12/21 04:25:14;;;;;;;17.08;9.07;;;;;;;-1.27;100.00;102635.34;10560677;28;20619;-66
2021/12/21 04:30:35;;;;;;;16.83;9.15;;;;;;;-1.42;100.00;102630.94;10526802;28;20075;-65
2021/12/21 04:35:57;;;;;;;15.73;9.13;;;;;;;-1.27;100.00;102636.25;10531855;28;20055;-65
2021/12/21 04:41:24;;;;;;;35.28;9.75;;;;;;;-1.52;100.00;102638.47;10569045;28;20086;-65
2021/12/21 04:46:46;;;;;;;19.58;9.27;;;;;;;-1.56;100.00;102646.91;10539098;28;20507;-65
2021/12/21 04:52:08;;;;;;;19.33;10.63;;;;;;;-1.39;100.00;102645.44;10526503;28;20090;-65
2021/12/21 04:57:29;;;;;;;18.55;8.93;;;;;;;-1.31;100.00;102633.63;10525917;28;20091;-65
2021/12/21 05:02:51;;;;;;;16.45;9.38;;;;;;;-1.41;100.00;102636.88;10525685;28;20040;-65
2021/12/21 05:08:25;;;;;;;16.02;9.55;;;;;;;-1.33;100.00;102625.91;10539201;28;20759;-65
2021/12/21 05:13:47;;;;;;;18.20;9.73;;;;;;;-1.48;100.00;102635.09;10543424;28;20048;-65
2021/12/21 05:19:09;;;;;;;16.13;10.20;;;;;;;-1.39;100.00;102619.88;10560295;28;20052;-67
2021/12/21 05:24:31;;;;;;;20.35;9.93;;;;;;;-1.34;100.00;102634.44;10580638;28;20074;-65
2021/12/21 05:29:52;;;;;;;18.35;9.70;;;;;;;-1.38;100.00;102626.72;10561643;28;20479;-66
2021/12/21 05:35:14;;;;;;;16.05;9.48;;;;;;;-1.28;100.00;102618.28;10531416;28;20059;-65
2021/12/21 05:40:42;;;;;;;18.10;9.65;;;;;;;-1.64;100.00;102625.53;10568714;28;20051;-65
2021/12/21 05:46:04;;;;;;;13.77;9.40;;;;;;;-1.67;100.00;102625.47;10565456;28;20049;-65
2021/12/21 05:51:26;;;;;;;21.00;9.43;;;;;;;-1.69;100.00;102624.59;10566304;28;20408;-65
2021/12/21 05:56:48;;;;;;;17.20;8.32;;;;;;;-1.61;100.00;102628.13;10542056;28;20048;-65
2021/12/21 06:02:09;;;;;;;14.95;8.35;;;;;;;-1.85;100.00;102626.09;10523294;28;20056;-65
2021/12/21 06:07:32;;;;;;;13.55;8.10;;;;;;;-1.60;100.00;102624.72;10527718;28;20078;-65
2021/12/21 06:29:39;;;;;;;10.05;6.63;;;;;;;-2.08;100.00;102636.78;10534905;28;20055;-64
2021/12/21 06:35:01;;;;;;;11.40;7.25;;;;;;;-1.99;100.00;102639.47;10564231;28;20035;-64
2021/12/21 06:40:23;;;;;;;16.90;7.38;;;;;;;-2.21;100.00;102647.66;10564019;28;20419;-65
2021/12/21 06:46:46;;;;;;;11.60;7.72;;;;;;;-2.08;100.00;102638.47;10554983;28;20059;-64
2021/12/21 06:51:46;;;;;;;15.55;8.27;;;;;;;-2.06;100.00;102652.13;10522347;28;20508;-64
2021/12/21 06:57:08;;;;;;;13.10;7.78;;;;;;;-2.06;100.00;102647.91;10522533;28;20059;-64
2021/12/21 07:02:30;;;;;;;19.25;7.75;;;;;;;-1.83;100.00;102641.44;10507700;28;20044;-65
2021/12/21 07:07:52;;;;;;;13.95;7.88;;;;;;;-2.14;100.00;102643.50;10521938;28;20113;-65
2021/12/21 07:18:54;;;;;;;13.43;7.63;;;;;;;-2.22;100.00;102645.06;10555519;28;20048;-64
2021/12/21 07:24:16;;;;;;;11.32;6.93;;;;;;;-2.07;100.00;102645.31;10564698;28;20443;-65
2021/12/21 07:29:37;;;;;;;12.90;7.32;;;;;;;-2.43;100.00;102644.72;10569695;28;20081;-65
2021/12/21 07:35:00;;;;;;;14.63;7.40;;;;;;;-1.93;100.00;102649.81;10562487;28;20044;-65
2021/12/21 07:40:21;;;;;;;12.10;6.40;;;;;;;-2.19;100.00;102651.09;10558822;28;20058;-65
2021/12/21 07:45:43;;;;;;;16.42;7.80;;;;;;;-2.00;100.00;102649.69;10559353;28;20492;-65
2021/12/21 07:51:06;;;;;;;14.63;6.95;;;;;;;-1.96;100.00;102643.78;10524690;28;20056;-66
2021/12/21 07:56:28;;;;;;;11.82;6.30;;;;;;;-2.12;100.00;102652.91;10553800;28;20051;-65
2021/12/21 08:01:50;;;;;;;11.35;5.88;;;;;;;-2.30;100.00;102647.50;10557677;28;20051;-65
2021/12/21 08:07:17;;;;;;;11.95;6.72;;;;;;;-2.14;100.00;102652.00;10563872;28;20126;-65
2021/12/21 08:12:38;;;;;;;11.98;6.80;;;;;;;-2.22;100.00;102656.16;10565008;28;20421;-66
2021/12/21 08:18:00;;;;;;;13.48;7.38;;;;;;;-2.17;100.00;102651.97;10527766;28;20047;-66
2021/12/21 08:23:22;;;;;;;14.10;7.65;;;;;;;-2.04;100.00;102659.00;10551667;28;20043;-65
2021/12/21 08:28:43;;;;;;;11.35;6.93;;;;;;;-2.31;100.00;102643.22;10522176;28;20052;-65
2021/12/21 08:34:05;;;;;;;17.23;7.88;;;;;;;-1.95;100.00;102643.81;10509669;28;20044;-65
2021/12/21 08:39:30;;;;;;;13.05;7.80;;;;;;;-2.18;100.00;102646.84;10536508;28;20087;-66
2021/12/21 08:44:52;;;;;;;14.25;7.63;;;;;;;-2.21;100.00;102639.13;10559080;28;20495;-66
2021/12/21 08:50:14;;;;;;;15.18;8.10;;;;;;;-1.97;100.00;102642.06;10551698;28;20058;-65
2021/12/21 08:55:36;;;;;;;17.75;7.90;;;;;;;-2.12;100.00;102636.72;10522216;28;20082;-65
2021/12/21 09:00:57;;;;;;;21.95;8.52;;;;;;;-2.08;100.00;102639.34;10539485;28;20385;-66
2021/12/21 09:06:19;;;;;;;16.67;8.48;;;;;;;-2.06;100.00;102632.56;10547586;28;20059;-64
2021/12/21 09:11:45;;;;;;;14.35;7.32;;;;;;;-2.06;100.00;102637.69;10576308;28;20056;-66
2021/12/21 09:17:07;;;;;;;12.40;7.10;;;;;;;-2.23;100.00;102639.09;10544912;28;20048;-66
2021/12/21 09:22:29;;;;;;;17.05;7.63;;;;;;;-2.08;100.00;102639.34;10549551;28;20044;-65
2021/12/21 09:27:51;;;;;;;140.57;11.70;;;;;;;-1.97;100.00;102647.19;10567877;28;20047;-65
2021/12/21 09:33:13;;;;;;;16.65;7.50;;;;;;;-1.73;100.00;102644.13;10537868;28;20385;-65
2021/12/21 09:38:35;;;;;;;14.50;7.30;;;;;;;-2.14;100.00;102657.13;10549637;28;20063;-66
2021/12/21 09:43:57;;;;;;;17.92;8.45;;;;;;;-1.83;100.00;102665.28;10535819;28;20048;-66
2021/12/21 09:49:18;;;;;;;22.58;8.93;;;;;;;-1.74;100.00;102667.09;10535590;28;20081;-66
2021/12/21 09:54:40;;;;;;;25.77;9.80;;;;;;;-1.71;100.00;102656.94;10528181;28;20052;-65
2021/12/21 10:00:10;;;;;;;33.13;10.13;;;;;;;-1.50;100.00;102657.22;10543905;28;20101;-66
2021/12/21 10:05:35;;;;;;;29.92;9.45;;;;;;;-1.66;100.00;102665.53;10549532;28;20481;-66
2021/12/21 10:10:57;;;;;;;34.45;10.38;;;;;;;-1.49;100.00;102674.28;10557202;27;20047;-66
2021/12/21 10:16:21;;;;;;;39.80;11.60;;;;;;;-1.21;100.00;102672.09;10528144;28;20040;-66
2021/12/21 10:21:46;;;;;;;36.95;11.93;;;;;;;-1.12;100.00;102667.13;10543710;28;20059;-66
2021/12/21 10:27:10;;;;;;;31.05;10.32;;;;;;;-1.16;100.00;102655.13;10530910;27;20046;-65
2021/12/21 10:32:32;;;;;;;36.33;11.15;;;;;;;-1.10;100.00;102667.13;10528057;27;20048;-66
2021/12/21 10:37:54;;;;;;;27.23;10.38;;;;;;;-1.14;100.00;102660.25;10537148;28;20070;-65
2021/12/21 10:43:16;;;;;;;25.15;10.60;;;;;;;-0.87;100.00;102659.72;10541354;27;20046;-66
2021/12/21 10:48:45;;;;;;;33.50;11.85;;;;;;;-1.01;100.00;102654.41;10555743;28;20051;-66
2021/12/21 10:54:07;;;;;;;27.10;11.38;;;;;;;-1.02;100.00;102657.84;10535287;28;20650;-66
2021/12/21 10:59:35;;;;;;;33.35;12.05;;;;;;;-0.70;100.00;102647.09;10520841;28;20048;-67
2021/12/21 11:05:02;;;;;;;26.48;11.95;;;;;;;-0.87;100.00;102644.34;10520007;28;20050;-66
2021/12/21 11:10:27;;;;;;;28.30;11.48;;;;;;;-0.84;100.00;102639.28;10526796;28;20047;-67
2021/12/21 11:16:07;;;;;;;23.42;11.40;;;;;;;-0.54;100.00;102629.34;10544989;28;20059;-66
2021/12/21 11:21:30;;;;;;;22.95;10.93;;;;;;;-0.35;100.00;102633.78;10565240;28;20090;-66
2021/12/21 11:26:52;;;;;;;28.33;10.82;;;;;;;-0.34;100.00;102622.69;10544264;28;20503;-67
2021/12/21 11:32:16;;;;;;;25.02;11.35;;;;;;;-0.18;100.00;102619.41;10548999;28;20104;-66
2021/12/21 11:37:43;;;;;;;36.65;12.82;;;;;;;-0.07;100.00;102609.25;10560309;28;20047;-65
2021/12/21 11:43:33;;;;;;;22.80;12.05;;;;;;;-0.07;100.00;102602.41;10556487;28;20056;-67
2021/12/21 11:49:11;;;;;;;26.13;13.00;;;;;;;0.03;100.00;102602.47;10548726;28;20063;-67
2021/12/21 11:54:42;;;;;;;30.80;13.00;;;;;;;-0.07;100.00;102586.19;10555138;28;20392;-67
2021/12/21 12:00:13;;;;;;;23.63;12.25;;;;;;;0.09;100.00;102586.28;10527592;28;20079;-67
2021/12/21 12:05:35;;;;;;;23.92;12.27;;;;;;;0.11;100.00;102588.00;10569093;28;20048;-67
2021/12/21 12:10:59;;;;;;;26.98;12.18;;;;;;;0.21;100.00;102588.91;10564655;28;20059;-67
2021/12/21 12:16:27;;;;;;;26.65;11.93;;;;;;;0.33;100.00;102574.47;10554960;28;20057;-65
2021/12/21 12:21:58;;;;;;;23.60;13.13;;;;;;;0.39;100.00;102578.75;10534226;28;20517;-65
2021/12/21 12:27:22;;;;;;;23.38;13.35;;;;;;;0.25;100.00;102576.09;10531405;28;20036;-66
2021/12/21 12:32:55;;;;;;;24.40;13.32;;;;;;;0.30;100.00;102577.00;10513481;28;20517;-65
2021/12/21 12:38:20;;;;;;;26.40;13.30;;;;;;;0.43;100.00;102580.50;10548976;27;20083;-65
2021/12/21 12:43:44;;;;;;;22.30;12.68;;;;;;;0.30;100.00;102576.13;10558977;28;20048;-66
2021/12/21 12:49:06;;;;;;;26.50;13.90;;;;;;;0.15;100.00;102570.91;10549701;28;20065;-66
2021/12/21 12:54:27;;;;;;;25.30;13.57;;;;;;;0.33;100.00;102573.59;10544177;27;20043;-66
2021/12/21 13:00:15;;;;;;;24.60;13.88;;;;;;;0.45;100.00;102573.63;10553562;27;20048;-66
2021/12/21 13:05:51;;;;;;;29.40;14.93;;;;;;;0.59;100.00;102566.84;10524620;28;20526;-66
2021/12/21 13:11:19;;;;;;;32.58;13.35;;;;;;;0.70;100.00;102565.19;10533552;28;20054;-68
2021/12/21 13:16:42;;;;;;;27.08;12.70;;;;;;;0.71;100.00;102560.06;10545787;28;20062;-66
2021/12/21 13:22:04;;;;;;;32.75;13.30;;;;;;;0.70;100.00;102545.50;10552541;28;20051;-67
2021/12/21 13:27:27;;;;;;;22.48;12.30;;;;;;;0.81;100.00;102543.81;10558422;28;20407;-67
2021/12/21 13:32:55;;;;;;;24.40;12.90;;;;;;;0.78;100.00;102546.41;10558964;28;20685;-66
2021/12/21 13:38:19;;;;;;;28.40;13.35;;;;;;;0.70;100.00;102539.53;10589430;27;20113;-68
2021/12/21 13:43:53;;;;;;;24.13;13.55;;;;;;;0.77;100.00;102541.25;10558123;28;20061;-68
2021/12/21 13:49:15;;;;;;;20.97;12.83;;;;;;;0.74;100.00;102536.97;10564953;28;20047;-67
2021/12/21 13:54:37;;;;;;;21.23;13.02;;;;;;;0.70;100.00;102540.38;10533757;28;20299;-67
2021/12/21 14:00:06;;;;;;;30.25;13.45;;;;;;;0.73;100.00;102552.38;10536603;28;20062;-67
2021/12/21 14:05:42;;;;;;;27.85;12.80;;;;;;;0.68;100.00;102552.34;10522221;28;20424;-66
2021/12/21 14:11:04;;;;;;;24.57;13.00;;;;;;;0.69;100.00;102555.78;10550480;27;20503;-68
2021/12/21 14:16:31;;;;;;;26.20;13.77;;;;;;;0.72;100.00;102548.09;10563925;28;20346;-67
2021/12/21 14:21:57;;;;;;;24.42;13.10;;;;;;;0.77;100.00;102552.41;10558715;28;20048;-67
2021/12/21 14:27:26;;;;;;;20.75;12.65;;;;;;;0.77;100.00;102556.66;10557333;28;20051;-67
2021/12/21 14:33:05;;;;;;;21.65;12.63;;;;;;;0.67;100.00;102560.06;10540150;28;20058;-68
2021/12/21 14:38:27;;;;;;;21.17;12.57;;;;;;;0.64;100.00;102566.03;10555775;28;20047;-67
2021/12/21 14:43:59;;;;;;;21.50;12.65;;;;;;;0.70;100.00;102560.06;10540354;28;20051;-67
2021/12/21 14:49:44;;;;;;;25.75;12.73;;;;;;;0.60;100.00;102558.31;10546395;28;20056;-66
2021/12/21 14:55:17;;;;;;;22.50;13.53;;;;;;;0.59;100.00;102560.03;10535953;28;20070;-67
2021/12/21 15:00:53;;;;;;;23.70;13.18;;;;;;;0.56;100.00;102566.88;10568798;28;20055;-67
2021/12/21 15:06:15;;;;;;;24.75;13.30;;;;;;;0.43;100.00;102575.38;10533211;28;20051;-67
2021/12/21 15:11:43;;;;;;;25.42;13.60;;;;;;;0.46;100.00;102575.34;10550288;28;20054;-68
2021/12/21 15:17:05;;;;;;;20.75;12.60;;;;;;;0.42;100.00;102577.06;10548566;28;20050;-66
2021/12/21 15:22:26;;;;;;;20.25;12.25;;;;;;;0.40;100.00;102580.47;10532726;28;20047;-67
2021/12/21 15:27:49;;;;;;;21.42;12.98;;;;;;;0.40;100.00;102573.63;10546203;28;20117;-67
2021/12/21 15:33:11;;;;;;;22.30;13.05;;;;;;;0.36;100.00;102582.16;10543072;28;20047;-67
2021/12/21 15:38:33;;;;;;;20.13;13.75;;;;;;;0.36;100.00;102573.59;10569563;28;20047;-67
2021/12/21 15:43:55;;;;;;;24.75;13.25;;;;;;;0.32;100.00;102582.13;10555043;28;20039;-67
2021/12/21 15:49:20;;;;;;;25.13;13.13;;;;;;;0.32;100.00;102579.56;10559029;28;20060;-68
2021/12/21 15:54:43;;;;;;;20.45;12.93;;;;;;;0.30;100.00;102583.81;10525522;28;20669;-67
2021/12/21 16:00:07;;;;;;;23.17;13.13;;;;;;;0.23;100.00;102587.22;10531367;28;20059;-67
2021/12/21 16:05:29;;;;;;;24.55;14.73;;;;;;;0.28;100.00;102580.41;10504952;28;20497;-68
2021/12/21 16:10:51;;;;;;;26.88;14.68;;;;;;;0.25;100.00;102580.41;10556849;28;20388;-68
2021/12/21 16:16:13;;;;;;;20.10;12.90;;;;;;;0.23;100.00;102571.84;10554986;28;20519;-68
2021/12/21 16:21:35;;;;;;;28.60;14.25;;;;;;;0.22;100.00;102570.13;10550855;28;20051;-67
2021/12/21 16:27:16;;;;;;;27.17;14.68;;;;;;;0.21;100.00;102569.28;10559289;28;20071;-68
2021/12/21 16:32:38;;;;;;;26.48;14.63;;;;;;;0.19;100.00;102577.78;10542723;28;20063;-67
2021/12/21 16:38:00;;;;;;;32.65;14.82;;;;;;;0.17;100.00;102582.03;10557422;28;20043;-68
2021/12/21 16:43:29;;;;;;;22.77;13.05;;;;;;;0.13;100.00;102577.78;10561637;28;20082;-67
2021/12/21 16:48:50;;;;;;;22.10;13.25;;;;;;;0.14;100.00;102574.38;10545504;27;20407;-67
2021/12/21 16:54:12;;;;;;;27.30;13.95;;;;;;;0.02;100.00;102571.69;10567496;28;20495;-68
2021/12/21 16:59:34;;;;;;;23.27;13.02;;;;;;;-0.04;100.00;102569.13;10527685;28;20436;-68
2021/12/21 17:04:56;;;;;;;24.90;15.05;;;;;;;0.03;100.00;102565.72;10518768;28;20055;-67
2021/12/21 17:10:20;;;;;;;23.42;14.52;;;;;;;0.01;100.00;102569.97;10555092;28;20047;-68
2021/12/21 17:15:42;;;;;;;24.08;15.15;;;;;;;-0.12;100.00;102568.19;10549441;28;20378;-68
2021/12/21 17:21:04;;;;;;;21.95;14.57;;;;;;;-0.11;100.00;102575.03;10557183;27;20042;-67
2021/12/21 17:26:26;;;;;;;27.33;15.35;;;;;;;-0.13;100.00;102579.28;10553189;27;20066;-67
2021/12/21 17:31:48;;;;;;;29.50;15.85;;;;;;;-0.22;100.00;102581.81;10565039;28;20372;-67
2021/12/21 17:37:10;;;;;;;25.55;14.90;;;;;;;-0.23;100.00;102584.38;10555517;27;20059;-67
2021/12/21 17:42:33;;;;;;;22.98;14.82;;;;;;;-0.22;100.00;102586.94;10548234;27;20043;-66
2021/12/21 17:47:54;;;;;;;23.48;14.77;;;;;;;-0.38;100.00;102582.53;10567398;28;20039;-67
2021/12/21 17:53:17;;;;;;;24.70;16.02;;;;;;;-0.29;100.00;102590.28;10578557;27;20137;-68
2021/12/21 17:58:39;;;;;;;24.80;15.23;;;;;;;-0.28;100.00;102586.88;10560528;28;20035;-67
2021/12/21 18:04:01;;;;;;;25.27;14.85;;;;;;;-0.42;100.00;102588.47;10557158;28;20055;-67
2021/12/21 18:09:23;;;;;;;26.08;14.90;;;;;;;-0.59;100.00;102587.50;10550683;28;20079;-69
2021/12/21 18:14:44;;;;;;;28.75;16.13;;;;;;;-0.57;100.00;102587.50;10542668;28;20071;-67
2021/12/21 18:20:07;;;;;;;32.33;16.75;;;;;;;-0.80;100.00;102584.72;10553915;28;20608;-67
2021/12/21 18:25:29;;;;;;;27.25;15.55;;;;;;;-0.62;100.00;102579.78;10539831;28;20537;-67
2021/12/21 18:30:51;;;;;;;28.27;15.38;;;;;;;-0.85;100.00;102585.53;10559533;27;20047;-66
2021/12/21 18:36:13;;;;;;;24.67;14.82;;;;;;;-0.84;100.00;102587.25;10548931;27;20056;-67
2021/12/21 18:41:34;;;;;;;22.27;13.68;;;;;;;-0.98;100.00;102584.53;10509727;28;20399;-67
2021/12/21 18:46:56;;;;;;;23.50;14.40;;;;;;;-0.86;100.00;102582.09;10589216;27;20133;-67
2021/12/21 18:52:18;;;;;;;23.98;12.90;;;;;;;-1.17;100.00;102570.72;10547046;27;20044;-67
2021/12/21 18:57:40;;;;;;;18.20;11.27;;;;;;;-1.31;100.00;102577.38;10575799;27;20043;-68
2021/12/21 19:03:09;;;;;;;20.15;11.80;;;;;;;-1.17;100.00;102581.78;10566843;28;20058;-68
2021/12/21 19:08:31;;;;;;;19.38;12.20;;;;;;;-1.29;100.00;102585.88;10539724;27;20500;-66
2021/12/21 19:13:53;;;;;;;20.98;12.18;;;;;;;-1.13;100.00;102582.66;10556337;28;20059;-67
2021/12/21 19:19:15;;;;;;;21.65;12.60;;;;;;;-1.16;100.00;102585.19;10528505;28;20751;-66
2021/12/21 19:24:36;;;;;;;22.35;12.35;;;;;;;-1.21;100.00;102589.41;10531034;28;20043;-67
2021/12/21 19:30:00;;;;;;;18.38;10.60;;;;;;;-1.46;100.00;102593.38;10546400;28;20044;-66
2021/12/21 19:35:22;;;;;;;19.33;11.73;;;;;;;-1.30;100.00;102589.28;10539239;28;20047;-66
2021/12/21 19:40:44;;;;;;;22.30;12.43;;;;;;;-1.30;100.00;102584.16;10556557;28;20044;-66
2021/12/21 19:46:07;;;;;;;24.20;12.23;;;;;;;-1.41;100.00;102583.19;10561670;28;20040;-66
2021/12/21 19:51:28;;;;;;;21.02;12.20;;;;;;;-1.55;100.00;102579.63;10558302;28;20517;-66
2021/12/21 19:56:50;;;;;;;20.50;11.65;;;;;;;-1.55;100.00;102577.06;10569201;28;20074;-65
2021/12/21 20:02:15;;;;;;;27.85;12.13;;;;;;;-1.76;100.00;102581.91;10569855;28;20048;-66
2021/12/21 20:07:37;;;;;;;25.15;12.75;;;;;;;-1.73;100.00;102582.81;10527140;28;20048;-66
2021/12/21 20:13:08;;;;;;;26.48;12.60;;;;;;;-1.90;100.00;102584.28;10532255;28;20054;-66
2021/12/21 20:18:29;;;;;;;25.33;11.98;;;;;;;-1.83;100.00;102585.22;10569207;28;20044;-66
2021/12/21 20:23:51;;;;;;;29.45;12.70;;;;;;;-1.96;100.00;102583.34;10540284;28;20508;-66
2021/12/21 20:29:13;;;;;;;29.60;13.88;;;;;;;-1.65;100.00;102583.75;10527000;28;20047;-66
2021/12/21 20:34:35;;;;;;;35.60;13.95;;;;;;;-1.71;100.00;102590.47;10529056;28;20051;-66
2021/12/21 20:39:57;;;;;;;35.20;13.82;;;;;;;-1.90;100.00;102594.50;10570066;28;20062;-66
2021/12/21 20:45:19;;;;;;;33.90;14.02;;;;;;;-2.04;100.00;102594.28;10575843;28;20101;-66
2021/12/21 20:50:42;;;;;;;46.13;15.50;;;;;;;-2.03;100.00;102594.28;10568302;28;20063;-66
2021/12/21 20:56:04;;;;;;;43.97;15.40;;;;;;;-2.08;100.00;102598.47;10528439;28;20063;-66
2021/12/21 21:01:26;;;;;;;42.42;16.00;;;;;;;-2.00;100.00;102607.09;10560648;27;20051;-66
2021/12/21 21:06:47;;;;;;;51.05;15.68;;;;;;;-2.25;100.00;102617.78;10571330;27;20047;-66
2021/12/21 21:12:09;;;;;;;42.55;15.52;;;;;;;-2.12;100.00;102617.16;10545481;27;20051;-65
2021/12/21 21:17:31;;;;;;;39.10;15.50;;;;;;;-2.25;100.00;102611.81;10531035;28;20048;-64
2021/12/21 21:22:53;;;;;;;40.95;15.48;;;;;;;-2.18;100.00;102606.81;10545930;22;20059;-65
2021/12/21 21:28:10;;;;;;;41.58;15.27;;;;;;;-2.34;100.00;102610.00;10378805;28;20443;-65
2021/12/21 21:33:33;;;;;;;47.15;15.45;;;;;;;-2.20;99.84;102608.53;10381666;28;20049;-66
2021/12/21 21:38:55;;;;;;;39.03;14.52;;;;;;;-2.41;100.00;102607.31;10391873;28;20041;-63
2021/12/21 21:44:16;;;;;;;46.88;14.85;;;;;;;-2.22;100.00;102612.75;10355393;28;20062;-64
2021/12/21 21:49:38;;;;;;;51.00;14.88;;;;;;;-2.32;100.00;102613.41;10383200;28;20060;-64
2021/12/21 21:55:00;;;;;;;42.28;15.30;;;;;;;-2.33;100.00;102603.19;10387430;28;20080;-64
2021/12/21 22:00:22;;;;;;;40.67;14.70;;;;;;;-2.26;100.00;102603.31;10368962;28;20061;-65
2021/12/21 22:05:44;;;;;;;42.47;14.82;;;;;;;-2.30;100.00;102604.09;10387955;28;20060;-64
2021/12/21 22:11:07;;;;;;;36.25;14.18;;;;;;;-2.30;99.59;102598.97;10382802;28;20501;-64
2021/12/21 22:16:29;;;;;;;43.25;14.10;;;;;;;-2.55;100.00;102591.78;10381559;28;20060;-64
2021/12/21 22:21:50;;;;;;;41.95;14.82;;;;;;;-2.37;100.00;102578.44;10390316;28;20054;-63
2021/12/21 22:27:12;;;;;;;35.65;13.45;;;;;;;-2.32;100.00;102585.31;10388884;28;20505;-63
2021/12/21 22:32:34;;;;;;;30.83;13.32;;;;;;;-2.42;100.00;102595.41;10368131;28;20052;-63
2021/12/21 22:37:55;;;;;;;30.23;13.20;;;;;;;-2.38;100.00;102598.03;10382081;28;20638;-64
2021/12/21 22:43:18;;;;;;;29.20;12.40;;;;;;;-2.62;99.08;102591.66;10379044;28;20603;-64
2021/12/21 22:48:40;;;;;;;34.65;12.45;;;;;;;-2.58;100.00;102593.44;10351882;28;20054;-65
2021/12/21 22:54:02;;;;;;;25.30;11.35;;;;;;;-2.49;100.00;102604.66;10373690;28;20055;-64
2021/12/21 22:59:24;;;;;;;29.60;12.35;;;;;;;-2.49;99.31;102604.66;10392700;28;20674;-63
2021/12/21 23:04:45;;;;;;;29.45;11.85;;;;;;;-2.79;99.65;102603.25;10373711;28;20056;-64
2021/12/21 23:10:09;;;;;;;26.73;12.30;;;;;;;-2.49;100.00;102611.44;10382064;28;20520;-64
2021/12/21 23:15:33;;;;;;;26.65;11.52;;;;;;;-2.43;100.00;102609.84;10380562;28;20504;-64
2021/12/21 23:20:54;;;;;;;26.95;11.52;;;;;;;-2.63;99.57;102613.78;10355824;28;20041;-65
2021/12/21 23:26:16;;;;;;;29.83;12.90;;;;;;;-2.55;100.00;102609.63;10351315;28;20049;-64
2021/12/21 23:31:44;;;;;;;26.77;13.10;;;;;;;-2.52;100.00;102617.34;10351058;28;20053;-65
2021/12/21 23:37:06;;;;;;;25.33;12.10;;;;;;;-2.78;100.00;102610.94;10363647;28;20046;-64
2021/12/21 23:42:27;;;;;;;32.10;14.02;;;;;;;-2.73;99.92;102614.41;10363265;28;20430;-67
2021/12/21 23:47:49;;;;;;;35.65;13.40;;;;;;;-2.66;99.57;102613.72;10357411;28;20042;-64
2021/12/21 23:53:11;;;;;;;26.02;12.95;;;;;;;-2.74;99.06;102612.69;10364132;28;20057;-64
2021/12/21 23:58:33;;;;;;;25.92;12.95;;;;;;;-2.66;99.02;102606.06;10362666;28;20050;-65
